createdAt,value
2023-03-21T00:02:21.851Z,89.07
2023-03-21T00:04:52.606Z,88.94
2023-03-21T00:07:21.382Z,89.10
2023-03-21T00:09:48.986Z,89.09
2023-03-21T00:12:16.669Z,88.97
2023-03-21T00:14:44.315Z,89.25
2023-03-21T00:17:11.972Z,89.31
2023-03-21T00:19:39.532Z,89.39
2023-03-21T00:22:08.864Z,89.46
2023-03-21T00:24:37.409Z,89.49
2023-03-21T00:27:30.233Z,89.61
2023-03-21T00:29:53.571Z,89.61
2023-03-21T00:32:21.871Z,89.61
2023-03-21T00:35:00.369Z,89.67
2023-03-21T00:37:37.115Z,89.86
2023-03-21T00:40:08.606Z,89.89
2023-03-21T00:42:37.054Z,90.03
2023-03-21T00:45:05.493Z,90.30
2023-03-21T00:47:33.128Z,90.33
2023-03-21T00:50:00.687Z,90.42
2023-03-21T00:52:40.268Z,90.49
2023-03-21T00:55:16.203Z,90.69
2023-03-21T00:57:47.485Z,90.95
2023-03-21T01:00:19.185Z,91.17
2023-03-21T01:02:47.204Z,91.16
2023-03-21T01:05:16.979Z,91.11
2023-03-21T01:07:44.550Z,91.41
2023-03-21T01:10:12.277Z,91.44
2023-03-21T01:12:39.858Z,91.39
2023-03-21T01:15:07.800Z,91.68
2023-03-21T01:17:35.375Z,91.69
2023-03-21T01:20:03.705Z,91.40
2023-03-21T01:22:31.290Z,91.45
2023-03-21T01:25:12.047Z,91.52
2023-03-21T01:27:46.491Z,91.39
2023-03-21T01:30:20.236Z,91.62
2023-03-21T01:32:50.485Z,91.70
2023-03-21T01:35:18.658Z,91.77
2023-03-21T01:37:46.236Z,91.78
2023-03-21T01:40:19.861Z,91.92
2023-03-21T01:42:47.707Z,91.87
2023-03-21T01:45:52.816Z,92.11
2023-03-21T01:48:23.228Z,92.15
2023-03-21T01:50:52.059Z,92.07
2023-03-21T01:53:22.090Z,92.32
2023-03-21T01:55:49.753Z,92.35
2023-03-21T01:58:18.856Z,92.36
2023-03-21T02:00:49.634Z,92.29
2023-03-21T02:03:29.532Z,92.38
2023-03-21T02:06:08.443Z,92.14
2023-03-21T02:08:39.701Z,92.00
2023-03-21T02:11:08.308Z,92.06
2023-03-21T02:13:35.998Z,92.06
2023-03-21T02:16:15.703Z,91.96
2023-03-21T02:19:02.216Z,91.87
2023-03-21T02:21:53.336Z,91.76
2023-03-21T02:24:46.284Z,91.76
2023-03-21T02:27:18.541Z,91.64
2023-03-21T02:30:14.918Z,91.65
2023-03-21T02:32:53.664Z,91.57
2023-03-21T02:35:54.352Z,91.49
2023-03-21T02:38:47.087Z,91.53
2023-03-21T02:41:27.446Z,91.28
2023-03-21T02:44:19.816Z,91.22
2023-03-21T02:47:04.594Z,91.29
2023-03-21T02:49:58.687Z,91.18
2023-03-21T02:52:38.755Z,91.21
2023-03-21T02:55:12.719Z,91.38
2023-03-21T02:57:44.112Z,91.48
2023-03-21T03:00:17.878Z,91.45
2023-03-21T03:02:45.636Z,91.63
2023-03-21T03:05:24.337Z,91.50
2023-03-21T03:08:10.793Z,91.66
2023-03-21T03:10:47.382Z,91.78
2023-03-21T03:13:20.692Z,91.77
2023-03-21T03:16:11.975Z,91.80
2023-03-21T03:18:52.494Z,91.81
2023-03-21T03:21:29.029Z,91.97
2023-03-21T03:24:03.670Z,91.82
2023-03-21T03:26:41.277Z,91.85
2023-03-21T03:29:14.869Z,91.89
2023-03-21T03:31:59.738Z,91.98
2023-03-21T03:34:33.523Z,91.99
2023-03-21T03:37:04.324Z,92.13
2023-03-21T03:39:43.913Z,91.98
2023-03-21T03:42:28.577Z,92.01
2023-03-21T03:44:57.504Z,92.06
2023-03-21T03:47:47.712Z,91.97
2023-03-21T03:50:47.426Z,92.06
2023-03-21T03:53:21.053Z,92.13
2023-03-21T03:55:49.841Z,92.12
2023-03-21T03:58:23.919Z,92.14
2023-03-21T04:00:54.679Z,92.20
2023-03-21T04:03:22.746Z,92.46
2023-03-21T04:05:50.376Z,92.57
2023-03-21T04:08:17.984Z,92.55
2023-03-21T04:10:45.545Z,92.63
2023-03-21T04:13:13.098Z,92.65
2023-03-21T04:15:40.736Z,92.80
2023-03-21T04:18:08.310Z,92.66
2023-03-21T04:20:37.450Z,92.80
2023-03-21T04:23:05.944Z,92.68
2023-03-21T04:25:35.048Z,92.70
2023-03-21T04:28:03.594Z,92.79
2023-03-21T04:30:31.178Z,92.61
2023-03-21T04:32:58.736Z,92.57
2023-03-21T04:35:26.901Z,92.58
2023-03-21T04:37:55.280Z,92.66
2023-03-21T04:40:23.079Z,92.73
2023-03-21T04:42:51.301Z,92.59
2023-03-21T04:45:18.925Z,92.69
2023-03-21T04:47:46.572Z,92.65
2023-03-21T04:50:14.362Z,92.68
2023-03-21T04:52:42.006Z,92.74
2023-03-21T04:55:10.441Z,92.69
2023-03-21T04:57:38.412Z,92.77
2023-03-21T05:00:09.385Z,92.86
2023-03-21T05:02:38.275Z,92.73
2023-03-21T05:05:06.822Z,92.70
2023-03-21T05:07:34.386Z,92.71
2023-03-21T05:10:02.654Z,92.74
2023-03-21T05:12:30.421Z,92.77
2023-03-21T05:14:57.989Z,92.84
2023-03-21T05:17:25.762Z,92.71
2023-03-21T05:19:53.309Z,92.61
2023-03-21T05:22:20.867Z,92.77
2023-03-21T05:24:48.428Z,92.61
2023-03-21T05:27:17.844Z,92.57
2023-03-21T05:29:45.433Z,92.46
2023-03-21T05:32:12.992Z,92.36
2023-03-21T05:34:40.674Z,92.37
2023-03-21T05:37:08.242Z,92.15
2023-03-21T05:39:35.802Z,92.14
2023-03-21T05:42:03.434Z,92.11
2023-03-21T05:44:30.972Z,92.14
2023-03-21T05:46:58.542Z,92.14
2023-03-21T05:49:26.143Z,92.28
2023-03-21T05:51:53.673Z,92.40
2023-03-21T05:54:21.275Z,92.45
2023-03-21T05:56:48.888Z,92.51
2023-03-21T05:59:16.509Z,92.47
2023-03-21T06:01:44.096Z,92.15
2023-03-21T06:04:11.721Z,92.02
2023-03-21T06:06:39.386Z,91.71
2023-03-21T06:09:06.979Z,91.52
2023-03-21T06:11:37.044Z,91.32
2023-03-21T06:14:04.580Z,91.20
2023-03-21T06:16:32.133Z,91.08
2023-03-21T06:18:59.676Z,91.08
2023-03-21T06:21:27.289Z,91.16
2023-03-21T06:23:54.886Z,91.03
2023-03-21T06:26:22.586Z,91.03
2023-03-21T06:28:51.193Z,90.92
2023-03-21T06:31:19.167Z,90.82
2023-03-21T06:33:46.739Z,90.79
2023-03-21T06:36:14.394Z,90.71
2023-03-21T06:38:41.953Z,90.41
2023-03-21T06:41:10.502Z,90.13
2023-03-21T06:43:38.092Z,90.00
2023-03-21T06:46:06.105Z,90.03
2023-03-21T06:48:33.699Z,89.80
2023-03-21T06:51:01.249Z,89.49
2023-03-21T06:53:28.828Z,89.20
2023-03-21T06:55:56.997Z,89.33
2023-03-21T06:58:24.644Z,89.25
2023-03-21T07:00:52.651Z,89.31
2023-03-21T07:03:20.218Z,89.38
2023-03-21T07:05:47.854Z,89.23
2023-03-21T07:08:15.432Z,89.26
2023-03-21T07:10:45.556Z,89.34
2023-03-21T07:13:13.735Z,89.37
2023-03-21T07:15:41.778Z,89.50
2023-03-21T07:18:10.052Z,89.61
2023-03-21T07:20:37.627Z,89.82
2023-03-21T07:23:05.309Z,90.03
2023-03-21T07:25:33.544Z,90.26
2023-03-21T07:28:01.125Z,90.46
2023-03-21T07:30:28.744Z,90.63
2023-03-21T07:32:56.277Z,90.69
2023-03-21T07:35:23.827Z,90.81
2023-03-21T07:37:51.387Z,91.09
2023-03-21T07:40:19.111Z,91.27
2023-03-21T07:42:49.022Z,91.11
2023-03-21T07:45:19.300Z,90.88
2023-03-21T07:47:49.117Z,90.55
2023-03-21T07:50:17.435Z,90.48
2023-03-21T07:52:45.129Z,90.16
2023-03-21T07:55:13.134Z,89.74
2023-03-21T07:57:40.720Z,89.47
2023-03-21T08:00:09.334Z,89.13
2023-03-21T08:02:36.928Z,88.81
2023-03-21T08:05:04.876Z,88.20
2023-03-21T08:07:32.578Z,87.77
2023-03-21T08:10:00.153Z,87.55
2023-03-21T08:12:27.718Z,87.43
2023-03-21T08:14:55.271Z,87.41
2023-03-21T08:17:22.863Z,87.08
2023-03-21T08:19:50.436Z,86.97
2023-03-21T08:22:18.014Z,86.91
2023-03-21T08:24:45.676Z,86.85
2023-03-21T08:27:13.224Z,86.73
2023-03-21T08:29:40.830Z,87.00
2023-03-21T08:32:09.035Z,86.93
2023-03-21T08:34:36.681Z,86.83
2023-03-21T08:37:04.292Z,86.70
2023-03-21T08:39:31.918Z,86.59
2023-03-21T08:41:59.478Z,86.35
2023-03-21T08:44:27.099Z,85.44
2023-03-21T08:46:54.662Z,85.17
2023-03-21T08:49:22.220Z,85.45
2023-03-21T08:51:49.744Z,85.28
2023-03-21T08:54:22.185Z,85.23
2023-03-21T08:56:49.753Z,84.90
2023-03-21T08:59:17.476Z,84.92
2023-03-21T09:01:45.132Z,84.92
2023-03-21T09:04:13.036Z,84.53
2023-03-21T09:06:41.127Z,83.96
2023-03-21T09:09:08.711Z,83.49
2023-03-21T09:11:36.275Z,83.10
2023-03-21T09:14:04.494Z,82.39
2023-03-21T09:16:32.207Z,81.76
2023-03-21T09:19:01.427Z,81.80
2023-03-21T09:21:29.160Z,81.73
2023-03-21T09:23:57.533Z,81.12
2023-03-21T09:26:26.776Z,80.80
2023-03-21T09:28:55.687Z,80.43
2023-03-21T09:31:23.490Z,79.62
2023-03-21T09:33:52.981Z,79.40
2023-03-21T09:36:20.633Z,79.22
2023-03-21T09:38:49.243Z,79.63
2023-03-21T09:41:38.896Z,79.92
2023-03-21T09:44:06.690Z,79.46
2023-03-21T09:46:45.791Z,78.75
2023-03-21T09:49:18.235Z,77.65
2023-03-21T09:51:49.461Z,77.03
2023-03-21T09:54:32.860Z,76.84
2023-03-21T09:57:10.918Z,77.52
2023-03-21T09:59:39.559Z,76.93
2023-03-21T10:02:36.504Z,76.19
2023-03-21T10:05:15.177Z,76.05
2023-03-21T10:07:46.848Z,75.83
2023-03-21T10:10:18.955Z,76.83
2023-03-21T10:12:50.206Z,76.16
2023-03-21T10:15:20.347Z,75.86
2023-03-21T10:18:01.631Z,74.58
2023-03-21T10:20:35.059Z,74.57
2023-03-21T10:23:12.472Z,73.94
2023-03-21T10:25:48.638Z,72.61
2023-03-21T10:28:20.974Z,73.30
2023-03-21T10:30:58.857Z,71.80
2023-03-21T10:33:32.250Z,71.71
2023-03-21T10:36:05.425Z,71.42
2023-03-21T10:38:34.209Z,71.19
2023-03-21T10:41:01.780Z,71.10
2023-03-21T10:43:29.358Z,69.90
2023-03-21T10:45:57.347Z,69.94
2023-03-21T10:48:25.505Z,68.97
2023-03-21T10:50:55.319Z,69.35
2023-03-21T10:53:27.518Z,69.41
2023-03-21T10:55:58.990Z,68.50
2023-03-21T10:58:35.150Z,69.35
2023-03-21T11:01:05.197Z,69.53
2023-03-21T11:03:38.946Z,69.33
2023-03-21T11:06:30.156Z,70.13
2023-03-21T11:09:05.689Z,68.64
2023-03-21T11:11:42.138Z,68.82
2023-03-21T11:14:26.143Z,68.78
2023-03-21T11:16:53.772Z,67.88
2023-03-21T11:19:35.800Z,67.27
2023-03-21T11:22:07.870Z,67.73
2023-03-21T11:24:36.211Z,68.24
2023-03-21T11:27:08.584Z,68.87
2023-03-21T11:29:38.560Z,67.36
2023-03-21T11:32:10.573Z,67.56
2023-03-21T11:34:51.561Z,67.77
2023-03-21T11:37:31.290Z,68.71
2023-03-21T11:40:32.674Z,67.85
2023-03-21T11:43:04.866Z,67.16
2023-03-21T11:45:34.936Z,67.42
2023-03-21T11:48:12.641Z,67.85
2023-03-21T11:50:43.376Z,68.23
2023-03-21T11:53:49.684Z,67.58
2023-03-21T11:56:32.413Z,67.24
2023-03-21T11:59:21.952Z,67.64
2023-03-21T12:02:14.346Z,67.49
2023-03-21T12:04:56.977Z,67.44
2023-03-21T12:07:48.762Z,67.86
2023-03-21T12:10:31.386Z,67.94
2023-03-21T12:13:24.209Z,68.11
2023-03-21T12:16:03.763Z,68.26
2023-03-21T12:18:44.193Z,68.82
2023-03-21T12:21:20.764Z,68.51
2023-03-21T12:23:50.974Z,69.00
2023-03-21T12:26:26.396Z,68.96
2023-03-21T12:29:06.726Z,68.99
2023-03-21T12:31:57.090Z,69.18
2023-03-21T12:34:30.572Z,70.42
2023-03-21T12:37:09.435Z,70.53
2023-03-21T12:39:40.395Z,70.52
2023-03-21T12:42:26.984Z,71.60
2023-03-21T12:45:06.288Z,71.01
2023-03-21T12:47:42.733Z,71.29
2023-03-21T12:50:31.529Z,71.44
2023-03-21T12:53:05.422Z,71.61
2023-03-21T12:55:35.236Z,72.78
2023-03-21T12:58:06.793Z,73.31
2023-03-21T13:00:41.924Z,73.80
2023-03-21T13:03:20.980Z,73.94
2023-03-21T13:05:55.407Z,73.90
2023-03-21T13:09:02.074Z,74.29
2023-03-21T13:11:31.248Z,74.30
2023-03-21T13:14:13.729Z,74.50
2023-03-21T13:16:49.608Z,74.40
2023-03-21T13:19:37.279Z,74.25
2023-03-21T13:22:16.544Z,74.53
2023-03-21T13:25:15.572Z,74.05
2023-03-21T13:27:43.263Z,74.33
2023-03-21T13:30:24.383Z,73.30
2023-03-21T13:33:16.449Z,72.15
2023-03-21T13:35:45.671Z,70.80
2023-03-21T13:38:20.458Z,69.55
2023-03-21T13:40:56.945Z,69.19
2023-03-21T13:43:45.588Z,69.18
2023-03-21T13:46:14.318Z,69.78
2023-03-21T13:48:58.569Z,71.29
2023-03-21T13:51:29.641Z,71.84
2023-03-21T13:54:07.283Z,72.70
2023-03-21T13:56:47.147Z,72.41
2023-03-21T13:59:19.172Z,72.56
2023-03-21T14:02:28.331Z,73.08
2023-03-21T14:05:07.031Z,73.11
2023-03-21T14:07:41.222Z,73.68
2023-03-21T14:10:20.129Z,73.91
2023-03-21T14:12:49.081Z,74.53
2023-03-21T14:15:23.373Z,74.29
2023-03-21T14:18:00.338Z,74.43
2023-03-21T14:20:33.665Z,74.36
2023-03-21T14:23:04.231Z,74.32
2023-03-21T14:25:46.747Z,73.72
2023-03-21T14:28:17.102Z,73.84
2023-03-21T14:30:45.203Z,73.74
2023-03-21T14:33:32.382Z,73.22
2023-03-21T14:36:04.839Z,72.82
2023-03-21T14:38:36.306Z,73.27
2023-03-21T14:41:04.924Z,73.08
2023-03-21T14:43:32.597Z,73.59
2023-03-21T14:46:01.196Z,74.32
2023-03-21T14:48:33.924Z,74.44
2023-03-21T14:51:05.021Z,74.48
2023-03-21T14:53:37.887Z,74.45
2023-03-21T14:56:21.835Z,73.91
2023-03-21T14:58:50.033Z,74.43
2023-03-21T15:01:27.765Z,74.70
2023-03-21T15:03:55.689Z,74.69
2023-03-21T15:06:23.272Z,74.45
2023-03-21T15:09:04.286Z,74.71
2023-03-21T15:11:38.338Z,74.53
2023-03-21T15:14:08.517Z,74.31
2023-03-21T15:16:37.053Z,74.59
2023-03-21T15:19:05.203Z,74.84
2023-03-21T15:21:40.252Z,74.76
2023-03-21T15:24:14.862Z,74.78
2023-03-21T15:26:49.720Z,74.72
2023-03-21T15:29:18.377Z,74.79
2023-03-21T15:31:48.011Z,74.97
2023-03-21T15:34:24.671Z,75.18
2023-03-21T15:37:01.501Z,75.19
2023-03-21T15:39:29.527Z,75.30
2023-03-21T15:41:59.096Z,75.43
2023-03-21T15:44:27.594Z,75.03
2023-03-21T15:46:55.691Z,75.36
2023-03-21T15:49:34.410Z,75.42
2023-03-21T15:52:16.549Z,75.68
2023-03-21T15:54:47.378Z,75.90
2023-03-21T15:57:23.909Z,75.73
2023-03-21T15:59:56.549Z,75.73
2023-03-21T16:02:29.605Z,76.04
2023-03-21T16:05:00.272Z,75.99
2023-03-21T16:07:28.534Z,76.32
2023-03-21T16:10:02.069Z,76.77
2023-03-21T16:12:29.756Z,77.27
2023-03-21T16:14:57.294Z,77.31
2023-03-21T16:17:36.003Z,77.54
2023-03-21T16:20:39.231Z,77.63
2023-03-21T16:23:08.924Z,77.85
2023-03-21T16:25:36.667Z,78.03
2023-03-21T16:28:04.793Z,78.02
2023-03-21T16:30:32.373Z,78.65
2023-03-21T16:33:00.060Z,78.72
2023-03-21T16:35:27.839Z,78.84
2023-03-21T16:37:55.462Z,79.01
2023-03-21T16:40:31.183Z,79.18
2023-03-21T16:42:58.949Z,79.29
2023-03-21T16:45:26.838Z,79.49
2023-03-21T16:47:55.054Z,79.73
2023-03-21T16:50:27.894Z,79.84
2023-03-21T16:52:56.696Z,80.23
2023-03-21T16:55:25.016Z,80.42
2023-03-21T16:57:53.607Z,80.61
2023-03-21T17:00:27.077Z,80.89
2023-03-21T17:02:57.149Z,81.01
2023-03-21T17:05:27.964Z,81.22
2023-03-21T17:07:56.344Z,81.40
2023-03-21T17:10:27.560Z,81.47
2023-03-21T17:12:55.388Z,81.43
2023-03-21T17:15:23.051Z,81.78
2023-03-21T17:17:50.647Z,81.89
2023-03-21T17:20:22.671Z,81.98
2023-03-21T17:22:50.461Z,82.26
2023-03-21T17:25:19.228Z,82.42
2023-03-21T17:27:48.078Z,82.72
2023-03-21T17:30:31.949Z,82.88
2023-03-21T17:32:59.981Z,82.87
2023-03-21T17:35:28.515Z,82.98
2023-03-21T17:37:57.819Z,83.25
2023-03-21T17:40:31.638Z,83.41
2023-03-21T17:43:00.108Z,83.52
2023-03-21T17:45:28.200Z,83.58
2023-03-21T17:47:55.854Z,83.69
2023-03-21T17:50:32.528Z,83.85
2023-03-21T17:53:00.188Z,83.99
2023-03-21T17:55:27.865Z,84.15
2023-03-21T17:57:55.756Z,84.19
2023-03-21T18:00:27.468Z,84.27
2023-03-21T18:02:55.335Z,84.41
2023-03-21T18:05:24.350Z,84.49
2023-03-21T18:10:41.788Z,84.53
2023-03-21T18:13:10.259Z,84.52
2023-03-21T18:15:38.545Z,84.49
2023-03-21T18:18:06.245Z,84.48
2023-03-21T18:23:21.982Z,84.76
2023-03-21T18:25:50.450Z,84.70
2023-03-21T18:28:21.143Z,84.71
2023-03-21T18:31:08.576Z,84.78
2023-03-21T18:33:38.873Z,84.88
2023-03-21T18:36:08.726Z,85.02
2023-03-21T18:38:37.109Z,85.08
2023-03-21T18:41:06.762Z,85.08
2023-03-21T18:46:24.191Z,85.48
2023-03-21T18:48:52.006Z,85.64
2023-03-21T18:51:19.590Z,85.66
2023-03-21T18:53:47.495Z,85.74
2023-03-21T18:56:54.756Z,85.75
2023-03-21T18:59:04.568Z,85.98
2023-03-21T19:01:32.371Z,86.11
2023-03-21T19:04:20.438Z,86.17
2023-03-21T19:06:48.499Z,86.37
2023-03-21T19:09:18.101Z,86.35
2023-03-21T19:11:46.804Z,86.36
2023-03-21T19:14:16.671Z,86.37
2023-03-21T19:17:26.687Z,86.53
2023-03-21T19:19:32.102Z,86.52
2023-03-21T19:22:00.035Z,86.45
2023-03-21T19:24:29.039Z,86.61
2023-03-21T19:26:56.749Z,86.60
2023-03-21T19:29:25.185Z,86.64
2023-03-21T19:31:53.124Z,86.64
2023-03-21T19:34:21.169Z,86.57
2023-03-21T19:36:51.813Z,86.47
2023-03-21T19:39:21.039Z,86.65
2023-03-21T19:41:50.014Z,86.81
2023-03-21T19:44:18.664Z,86.84
2023-03-21T19:46:46.396Z,86.79
2023-03-21T19:49:15.167Z,86.79
2023-03-21T19:51:42.771Z,86.82
2023-03-21T19:54:10.402Z,86.82
2023-03-21T19:56:37.993Z,86.80
2023-03-21T19:59:07.030Z,86.83
2023-03-21T20:01:34.622Z,86.86
2023-03-21T20:04:02.282Z,86.79
2023-03-21T20:06:29.857Z,86.87
2023-03-21T20:09:42.965Z,86.92
2023-03-21T20:11:45.007Z,86.94
2023-03-21T20:14:12.579Z,86.83
2023-03-21T20:16:43.324Z,87.00
2023-03-21T20:19:13.146Z,87.07
2023-03-21T20:21:48.550Z,87.12
2023-03-21T20:24:17.400Z,87.40
2023-03-21T20:26:45.421Z,87.30
2023-03-21T20:30:07.076Z,87.42
2023-03-21T20:32:00.789Z,87.53
2023-03-21T20:34:29.094Z,87.47
2023-03-21T20:36:58.276Z,87.54
2023-03-21T20:39:28.560Z,87.54
2023-03-21T20:41:59.407Z,87.73
2023-03-21T20:44:57.184Z,87.68
2023-03-21T20:47:15.081Z,87.97
2023-03-21T20:49:42.693Z,88.01
2023-03-21T20:54:58.080Z,87.96
2023-03-21T20:57:26.442Z,88.06
2023-03-21T20:59:54.948Z,87.99
2023-03-21T21:02:23.507Z,87.97
2023-03-21T21:05:21.533Z,88.00
2023-03-21T21:07:40.262Z,88.09
2023-03-21T21:10:14.228Z,88.17
2023-03-21T21:12:42.348Z,88.24
2023-03-21T21:15:10.227Z,88.21
2023-03-21T21:18:04.083Z,88.44
2023-03-21T21:20:25.965Z,88.37
2023-03-21T21:22:59.605Z,88.52
2023-03-21T21:25:31.435Z,88.56
2023-03-21T21:27:59.110Z,88.62
2023-03-21T21:30:26.683Z,88.75
2023-03-21T21:32:54.255Z,88.63
2023-03-21T21:35:21.849Z,88.75
2023-03-21T21:37:49.572Z,88.97
2023-03-21T21:40:17.166Z,89.12
2023-03-21T21:42:44.831Z,89.29
2023-03-21T21:45:13.237Z,89.34
2023-03-21T21:47:42.955Z,89.58
2023-03-21T21:50:10.859Z,89.44
2023-03-21T21:52:38.478Z,89.47
2023-03-21T21:55:06.393Z,89.30
2023-03-21T21:57:33.990Z,89.46
2023-03-21T22:00:02.268Z,89.50
2023-03-21T22:02:29.911Z,89.52
2023-03-21T22:04:57.517Z,89.62
2023-03-21T22:07:28.546Z,89.59
2023-03-21T22:09:56.199Z,89.62
2023-03-21T22:12:23.776Z,89.55
2023-03-21T22:14:51.494Z,89.64
2023-03-21T22:17:19.049Z,89.68
2023-03-21T22:20:02.565Z,89.79
2023-03-21T22:22:37.031Z,89.82
2023-03-21T22:25:06.061Z,89.71
2023-03-21T22:27:34.160Z,89.66
2023-03-21T22:30:02.273Z,89.63
2023-03-21T22:32:39.484Z,89.81
2023-03-21T22:35:08.045Z,90.01
2023-03-21T22:37:38.189Z,90.15
2023-03-21T22:40:08.364Z,90.17
2023-03-21T22:42:37.053Z,90.38
2023-03-21T22:45:05.782Z,90.44
2023-03-21T22:47:33.632Z,90.49
2023-03-21T22:50:01.232Z,90.32
2023-03-21T22:52:28.844Z,90.32
2023-03-21T22:54:56.411Z,90.26
2023-03-21T22:57:25.366Z,90.30
2023-03-21T22:59:52.939Z,90.35
2023-03-21T23:02:20.607Z,90.47
2023-03-21T23:04:48.278Z,90.40
2023-03-21T23:07:15.912Z,90.37
2023-03-21T23:09:45.007Z,90.33
2023-03-21T23:12:12.597Z,90.19
2023-03-21T23:14:40.197Z,90.40
2023-03-21T23:17:07.813Z,90.46
2023-03-21T23:19:35.481Z,90.45
2023-03-21T23:22:03.095Z,90.32
2023-03-21T23:24:30.715Z,90.29
2023-03-21T23:26:58.289Z,90.37
2023-03-21T23:29:26.457Z,90.32
2023-03-21T23:31:54.128Z,90.30
2023-03-21T23:34:21.944Z,90.76
2023-03-21T23:36:49.528Z,91.28
2023-03-21T23:39:17.099Z,91.91
2023-03-21T23:41:44.718Z,91.85
2023-03-21T23:44:12.283Z,91.91
2023-03-21T23:46:39.894Z,91.82
2023-03-21T23:49:07.574Z,91.75
2023-03-21T23:51:35.188Z,91.88
2023-03-21T23:54:02.758Z,92.04
2023-03-21T23:56:30.365Z,91.68
2023-03-21T23:58:58.088Z,91.50
